Orlando, Oklahoma
Current Conditions -  °F | °C
As of 4:53 AM on Wednesday 22 Oct 2014 (Local Time) from KSWO Reporting Station
Clear Clear  
Wind Chill: 59°   Ceiling: Unl
Heat Index: 59°   Visibility: 8mi
Dew Point: 57°   Wind: 5mph
Humidity: 93%   Direction: 150°SSE
Pressure: 30.07"   Gusts: NA
Location:  36.15°N, 97.38°W
Report Text: KSWO 220953Z AUTO 15004KT 8SM CLR 15/14 A3007 RMK AO2 SLP174 T01500139
Loading
Personal Weather Stations






























Interactive Weather Map
Tropical Storm Tracking
New forecast layout! Learn more

10-Day Weather Forecast

Advertisements
Track Severe Weather on mobile